createdAt,value
2023-02-27T00:02:20.567Z,7.70
2023-02-27T00:04:48.943Z,9.60
2023-02-27T00:07:17.986Z,7.20
2023-02-27T00:09:46.322Z,6.60
2023-02-27T00:12:14.814Z,8.70
2023-02-27T00:14:43.102Z,8.20
2023-02-27T00:17:11.558Z,7.60
2023-02-27T00:19:39.889Z,6.70
2023-02-27T00:22:08.304Z,7.50
2023-02-27T00:24:36.570Z,7.30
2023-02-27T00:27:04.984Z,7.10
2023-02-27T00:29:33.305Z,8.30
2023-02-27T00:32:01.705Z,7.90
2023-02-27T00:34:30.154Z,8.30
2023-02-27T00:36:58.487Z,9.90
2023-02-27T00:39:26.804Z,6.50
2023-02-27T00:41:55.232Z,7.40
2023-02-27T00:44:23.950Z,8.00
2023-02-27T00:46:52.389Z,9.80
2023-02-27T00:49:21.038Z,6.90
2023-02-27T00:51:49.489Z,8.50
2023-02-27T00:54:18.086Z,7.20
2023-02-27T00:56:46.453Z,8.20
2023-02-27T00:59:15.156Z,10.50
2023-02-27T01:01:44.860Z,7.30
2023-02-27T01:04:13.655Z,6.80
2023-02-27T01:06:42.008Z,6.70
2023-02-27T01:09:10.399Z,6.30
2023-02-27T01:11:38.949Z,7.30
2023-02-27T01:14:07.274Z,6.70
2023-02-27T01:16:36.541Z,9.00
2023-02-27T01:19:05.137Z,9.40
2023-02-27T01:21:33.588Z,8.70
2023-02-27T01:24:02.334Z,7.90
2023-02-27T01:26:30.724Z,7.80
2023-02-27T01:28:59.793Z,7.90
2023-02-27T01:31:28.558Z,8.10
2023-02-27T01:33:57.201Z,9.10
2023-02-27T01:36:25.619Z,7.70
2023-02-27T01:38:53.933Z,9.20
2023-02-27T01:41:22.481Z,8.80
2023-02-27T01:44:09.901Z,9.90
2023-02-27T01:46:39.667Z,6.80
2023-02-27T01:49:32.544Z,7.60
2023-02-27T01:52:06.561Z,8.40
2023-02-27T01:54:40.536Z,9.50
2023-02-27T01:57:09.908Z,8.00
2023-02-27T01:59:41.717Z,8.30
2023-02-27T02:02:22.107Z,10.50
2023-02-27T02:04:51.374Z,8.10
2023-02-27T02:07:22.184Z,7.70
2023-02-27T02:09:55.074Z,9.30
2023-02-27T02:12:34.137Z,8.50
2023-02-27T02:15:04.169Z,9.40
2023-02-27T02:18:19.886Z,9.90
2023-02-27T02:21:29.485Z,7.60
2023-02-27T02:24:34.278Z,8.80
2023-02-27T02:27:26.445Z,7.90
2023-02-27T02:30:25.003Z,8.00
2023-02-27T02:33:11.741Z,8.50
2023-02-27T02:36:17.892Z,10.20
2023-02-27T02:39:17.181Z,8.80
2023-02-27T02:41:48.383Z,8.40
2023-02-27T02:44:41.862Z,8.60
2023-02-27T02:47:22.206Z,9.60
2023-02-27T02:50:05.649Z,7.70
2023-02-27T02:53:09.144Z,8.20
2023-02-27T02:55:52.885Z,8.00
2023-02-27T02:58:37.473Z,8.70
2023-02-27T03:01:15.686Z,9.30
2023-02-27T03:04:10.551Z,8.80
2023-02-27T03:06:56.127Z,9.00
2023-02-27T03:09:42.861Z,8.50
2023-02-27T03:12:16.781Z,9.30
2023-02-27T03:15:03.892Z,9.30
2023-02-27T03:17:43.427Z,9.50
2023-02-27T03:20:18.392Z,8.80
2023-02-27T03:22:52.708Z,8.60
2023-02-27T03:25:25.341Z,8.80
2023-02-27T03:28:01.528Z,10.30
2023-02-27T03:30:53.544Z,10.40
2023-02-27T03:33:29.509Z,9.50
2023-02-27T03:36:19.722Z,8.80
2023-02-27T03:39:18.109Z,10.20
2023-02-27T03:42:34.172Z,9.40
2023-02-27T03:45:26.028Z,9.30
2023-02-27T03:47:54.740Z,8.20
2023-02-27T03:50:23.291Z,9.50
2023-02-27T03:52:51.938Z,9.00
2023-02-27T03:55:35.691Z,8.40
2023-02-27T03:58:05.205Z,8.60
2023-02-27T04:00:34.694Z,9.20
2023-02-27T04:03:05.231Z,9.20
2023-02-27T04:05:34.149Z,9.70
2023-02-27T04:08:46.954Z,9.30
2023-02-27T04:11:30.426Z,9.40
2023-02-27T04:14:29.869Z,10.00
2023-02-27T04:17:27.520Z,9.50
2023-02-27T04:20:26.772Z,9.60
2023-02-27T04:23:18.833Z,11.00
2023-02-27T04:25:52.869Z,12.00
2023-02-27T04:28:48.436Z,10.40
2023-02-27T04:31:31.450Z,11.30
2023-02-27T04:34:36.799Z,12.00
2023-02-27T04:40:02.819Z,12.70
2023-02-27T04:42:35.747Z,12.20
2023-02-27T04:45:09.525Z,11.10
2023-02-27T04:47:48.123Z,12.10
2023-02-27T04:50:27.815Z,10.00
2023-02-27T04:53:12.043Z,12.60
2023-02-27T04:55:50.496Z,16.20
2023-02-27T04:58:25.813Z,16.20
2023-02-27T05:01:03.945Z,16.60
2023-02-27T05:03:41.508Z,15.40
2023-02-27T05:06:11.675Z,14.00
2023-02-27T05:08:50.916Z,14.60
2023-02-27T05:11:41.150Z,14.10
2023-02-27T05:14:31.869Z,11.90
2023-02-27T05:17:09.361Z,11.60
2023-02-27T05:19:42.826Z,13.70
2023-02-27T05:22:40.042Z,13.00
2023-02-27T05:25:30.792Z,14.40
2023-02-27T05:28:21.658Z,12.10
2023-02-27T05:31:02.129Z,13.00
2023-02-27T05:33:39.314Z,13.60
2023-02-27T05:36:38.684Z,12.00
2023-02-27T05:39:11.053Z,13.50
2023-02-27T05:41:50.621Z,12.40
2023-02-27T05:44:28.280Z,12.60
2023-02-27T05:47:02.093Z,12.10
2023-02-27T05:49:49.444Z,13.40
2023-02-27T05:52:23.589Z,13.70
2023-02-27T05:57:47.034Z,15.80
2023-02-27T06:00:26.264Z,12.90
2023-02-27T06:02:54.680Z,13.50
2023-02-27T06:05:25.605Z,13.50
2023-02-27T06:07:53.967Z,12.50
2023-02-27T06:10:22.755Z,12.80
2023-02-27T06:12:51.134Z,14.30
2023-02-27T06:15:19.915Z,13.40
2023-02-27T06:17:48.299Z,12.30
2023-02-27T06:20:17.009Z,12.20
2023-02-27T06:22:45.551Z,14.20
2023-02-27T06:25:14.061Z,13.60
2023-02-27T06:27:42.449Z,14.30
2023-02-27T06:30:11.835Z,14.00
2023-02-27T06:32:40.815Z,12.70
2023-02-27T06:35:09.970Z,14.30
2023-02-27T06:37:38.617Z,12.50
2023-02-27T06:40:14.713Z,16.00
2023-02-27T06:42:45.318Z,14.10
2023-02-27T06:45:15.938Z,11.30
2023-02-27T06:47:45.005Z,12.50
2023-02-27T06:50:14.284Z,12.70
2023-02-27T06:52:42.710Z,14.20
2023-02-27T06:55:12.028Z,13.40
2023-02-27T06:57:40.458Z,16.70
2023-02-27T07:00:11.986Z,15.80
2023-02-27T07:02:40.978Z,14.80
2023-02-27T07:05:12.152Z,14.10
2023-02-27T07:07:41.154Z,13.80
2023-02-27T07:10:13.582Z,15.30
2023-02-27T07:12:42.385Z,16.30
2023-02-27T07:15:11.563Z,15.80
2023-02-27T07:17:40.043Z,17.10
2023-02-27T07:20:10.797Z,15.20
2023-02-27T07:22:40.833Z,15.00
2023-02-27T07:25:10.221Z,16.70
2023-02-27T07:27:38.888Z,15.40
2023-02-27T07:30:10.773Z,16.20
2023-02-27T07:32:39.139Z,16.90
2023-02-27T07:35:08.671Z,17.10
2023-02-27T07:37:37.089Z,18.40
2023-02-27T07:40:07.739Z,16.80
2023-02-27T07:42:36.100Z,17.70
2023-02-27T07:45:06.142Z,17.40
2023-02-27T07:47:34.536Z,17.60
2023-02-27T07:50:04.601Z,16.70
2023-02-27T07:52:33.234Z,14.70
2023-02-27T07:55:01.625Z,16.30
2023-02-27T07:57:29.992Z,16.30
2023-02-27T07:59:59.152Z,16.70
2023-02-27T08:02:27.564Z,16.60
2023-02-27T08:04:56.016Z,16.30
2023-02-27T08:07:25.388Z,16.60
2023-02-27T08:09:54.027Z,16.30
2023-02-27T08:12:22.575Z,16.70
2023-02-27T08:14:51.006Z,18.10
2023-02-27T08:17:19.472Z,16.60
2023-02-27T08:19:47.805Z,15.80
2023-02-27T08:22:16.277Z,17.40
2023-02-27T08:24:44.927Z,18.30
2023-02-27T08:27:13.399Z,18.90
2023-02-27T08:29:43.551Z,17.50
2023-02-27T08:32:12.123Z,18.30
2023-02-27T08:34:40.818Z,16.40
2023-02-27T08:37:09.224Z,22.60
2023-02-27T08:39:37.692Z,23.90
2023-02-27T08:42:07.318Z,23.70
2023-02-27T08:44:35.930Z,19.30
2023-02-27T08:47:04.422Z,22.20
2023-02-27T08:49:32.975Z,18.50
2023-02-27T08:52:01.560Z,22.30
2023-02-27T08:54:30.487Z,18.60
2023-02-27T08:56:59.012Z,17.00
2023-02-27T08:59:27.897Z,21.50
2023-02-27T09:01:56.422Z,21.00
2023-02-27T09:04:25.070Z,18.00
2023-02-27T09:06:57.502Z,17.90
2023-02-27T09:09:25.951Z,17.10
2023-02-27T09:11:54.464Z,16.30
2023-02-27T09:14:23.363Z,17.60
2023-02-27T09:16:51.913Z,18.00
2023-02-27T09:19:20.388Z,18.60
2023-02-27T09:21:48.820Z,19.40
2023-02-27T09:24:20.452Z,18.10
2023-02-27T09:26:49.822Z,15.90
2023-02-27T09:29:18.544Z,18.10
2023-02-27T09:31:47.265Z,16.10
2023-02-27T09:34:15.876Z,14.20
2023-02-27T09:36:44.360Z,18.70
2023-02-27T09:39:12.862Z,20.10
2023-02-27T09:41:55.949Z,17.10
2023-02-27T09:44:45.657Z,17.70
2023-02-27T09:47:30.919Z,16.90
2023-02-27T09:50:17.962Z,16.50
2023-02-27T09:52:46.434Z,18.30
2023-02-27T09:55:21.867Z,17.50
2023-02-27T09:57:57.983Z,17.70
2023-02-27T10:00:44.263Z,15.00
2023-02-27T10:03:56.724Z,16.00
2023-02-27T10:06:44.354Z,15.50
2023-02-27T10:09:30.926Z,14.20
2023-02-27T10:12:24.176Z,16.10
2023-02-27T10:15:15.922Z,17.10
2023-02-27T10:18:26.076Z,16.90
2023-02-27T10:21:16.006Z,16.60
2023-02-27T10:24:07.852Z,15.50
2023-02-27T10:26:41.664Z,13.90
2023-02-27T10:29:34.495Z,14.20
2023-02-27T10:32:09.958Z,15.30
2023-02-27T10:34:42.781Z,15.10
2023-02-27T10:37:17.699Z,14.00
2023-02-27T10:39:52.573Z,14.40
2023-02-27T10:42:23.479Z,14.40
2023-02-27T10:44:53.910Z,11.30
2023-02-27T10:47:25.393Z,11.60
2023-02-27T10:49:55.430Z,11.70
2023-02-27T10:52:23.943Z,11.90
2023-02-27T10:54:53.167Z,12.60
2023-02-27T10:57:36.100Z,10.40
2023-02-27T11:00:22.618Z,11.40
2023-02-27T11:02:54.806Z,12.80
2023-02-27T11:05:33.280Z,10.60
2023-02-27T11:08:22.868Z,9.70
2023-02-27T11:11:09.550Z,14.50
2023-02-27T11:13:45.377Z,21.00
2023-02-27T11:16:16.780Z,24.50
2023-02-27T11:18:48.601Z,29.30
2023-02-27T11:21:30.597Z,18.60
2023-02-27T11:24:20.772Z,10.20
2023-02-27T11:27:03.989Z,20.40
2023-02-27T11:29:35.169Z,16.80
2023-02-27T11:32:13.132Z,21.70
2023-02-27T11:34:50.317Z,24.60
2023-02-27T11:37:32.739Z,20.70
2023-02-27T11:40:19.621Z,11.10
2023-02-27T11:43:05.088Z,20.10
2023-02-27T11:46:10.744Z,10.00
2023-02-27T11:48:49.619Z,26.40
2023-02-27T11:51:41.869Z,26.00
2023-02-27T11:54:19.007Z,24.90
2023-02-27T11:57:27.953Z,14.70
2023-02-27T12:00:16.546Z,31.60
2023-02-27T12:02:58.241Z,30.80
2023-02-27T12:05:32.640Z,36.70
2023-02-27T12:08:18.417Z,30.80
2023-02-27T12:11:01.742Z,22.20
2023-02-27T12:13:41.614Z,17.10
2023-02-27T12:16:51.558Z,15.50
2023-02-27T12:19:47.390Z,14.10
2023-02-27T12:22:32.169Z,19.50
2023-02-27T12:25:12.207Z,26.50
2023-02-27T12:27:53.724Z,13.40
2023-02-27T12:30:27.691Z,20.50
2023-02-27T12:33:22.305Z,20.10
2023-02-27T12:36:03.045Z,25.60
2023-02-27T12:38:32.544Z,32.60
2023-02-27T12:41:14.701Z,31.00
2023-02-27T12:44:07.870Z,26.30
2023-02-27T12:47:45.417Z,28.60
2023-02-27T12:50:23.025Z,36.30
2023-02-27T12:53:19.937Z,27.30
2023-02-27T12:56:06.490Z,30.30
2023-02-27T12:59:03.463Z,28.90
2023-02-27T13:01:59.881Z,33.00
2023-02-27T13:04:43.560Z,35.20
2023-02-27T13:07:37.633Z,21.30
2023-02-27T13:10:27.596Z,38.60
2023-02-27T13:13:09.381Z,48.00
2023-02-27T13:15:49.229Z,41.40
2023-02-27T13:18:30.908Z,40.90
2023-02-27T13:21:31.824Z,37.90
2023-02-27T13:24:16.653Z,24.30
2023-02-27T13:26:58.610Z,41.80
2023-02-27T13:29:39.979Z,40.60
2023-02-27T13:32:43.512Z,30.90
2023-02-27T13:35:49.345Z,36.30
2023-02-27T13:38:34.862Z,35.00
2023-02-27T13:41:21.776Z,40.40
2023-02-27T13:43:53.121Z,23.60
2023-02-27T13:46:47.923Z,36.90
2023-02-27T13:49:29.621Z,41.30
2023-02-27T13:52:05.382Z,28.80
2023-02-27T13:54:40.749Z,20.10
2023-02-27T13:57:22.942Z,27.20
2023-02-27T13:59:55.207Z,31.90
2023-02-27T14:02:59.416Z,27.90
2023-02-27T14:05:43.249Z,35.70
2023-02-27T14:08:37.119Z,33.10
2023-02-27T14:11:18.656Z,26.10
2023-02-27T14:13:54.897Z,33.00
2023-02-27T14:16:41.551Z,28.10
2023-02-27T14:19:15.584Z,21.70
2023-02-27T14:22:12.810Z,24.00
2023-02-27T14:25:02.460Z,40.30
2023-02-27T14:27:51.957Z,26.40
2023-02-27T14:30:32.333Z,31.40
2023-02-27T14:33:12.001Z,33.30
2023-02-27T14:35:45.594Z,41.20
2023-02-27T14:38:20.157Z,36.60
2023-02-27T14:41:31.338Z,26.60
2023-02-27T14:44:00.523Z,41.90
2023-02-27T14:46:41.454Z,40.00
2023-02-27T14:49:30.992Z,33.00
2023-02-27T14:52:29.615Z,22.80
2023-02-27T14:55:30.029Z,38.50
2023-02-27T14:58:00.343Z,21.70
2023-02-27T15:00:35.069Z,25.10
2023-02-27T15:03:24.327Z,23.00
2023-02-27T15:05:57.918Z,30.30
2023-02-27T15:08:32.220Z,33.50
2023-02-27T15:11:02.556Z,32.60
2023-02-27T15:13:36.892Z,34.10
2023-02-27T15:16:23.753Z,27.30
2023-02-27T15:19:13.051Z,22.70
2023-02-27T15:21:50.942Z,27.70
2023-02-27T15:24:40.587Z,19.90
2023-02-27T15:27:21.144Z,25.40
2023-02-27T15:29:59.131Z,21.20
2023-02-27T15:32:41.358Z,13.30
2023-02-27T15:35:16.629Z,25.10
2023-02-27T15:37:52.153Z,22.10
2023-02-27T15:40:26.439Z,25.30
2023-02-27T15:42:56.316Z,21.60
2023-02-27T15:45:36.393Z,27.80
2023-02-27T15:48:05.355Z,18.40
2023-02-27T15:50:38.402Z,27.50
2023-02-27T15:53:25.990Z,24.80
2023-02-27T15:56:06.221Z,16.50
2023-02-27T15:58:39.062Z,20.00
2023-02-27T16:01:20.625Z,27.50
2023-02-27T16:03:53.273Z,23.70
2023-02-27T16:06:33.200Z,21.50
2023-02-27T16:09:19.573Z,17.60
2023-02-27T16:11:48.089Z,19.00
2023-02-27T16:14:39.358Z,23.20
2023-02-27T16:17:28.180Z,20.50
2023-02-27T16:20:01.796Z,21.00
2023-02-27T16:22:30.708Z,29.10
2023-02-27T16:25:18.944Z,36.80
2023-02-27T16:27:51.116Z,28.30
2023-02-27T16:30:19.551Z,38.00
2023-02-27T16:32:47.923Z,18.10
2023-02-27T16:35:20.369Z,17.30
2023-02-27T16:37:50.619Z,18.30
2023-02-27T16:40:23.140Z,16.80
2023-02-27T16:42:53.273Z,15.30
2023-02-27T16:45:27.907Z,13.20
2023-02-27T16:47:59.658Z,13.40
2023-02-27T16:50:38.640Z,13.50
2023-02-27T16:53:08.186Z,13.50
2023-02-27T16:55:41.082Z,14.90
2023-02-27T16:58:17.009Z,13.60
2023-02-27T17:00:45.548Z,11.70
2023-02-27T17:03:14.633Z,15.40
2023-02-27T17:05:43.086Z,12.90
2023-02-27T17:08:11.822Z,13.40
2023-02-27T17:10:40.233Z,14.80
2023-02-27T17:13:08.682Z,14.20
2023-02-27T17:15:36.986Z,15.40
2023-02-27T17:18:07.051Z,16.30
2023-02-27T17:20:36.996Z,17.70
2023-02-27T17:23:05.472Z,15.20
2023-02-27T17:25:34.052Z,13.80
2023-02-27T17:28:02.457Z,20.70
2023-02-27T17:30:30.831Z,14.50
2023-02-27T17:33:00.708Z,19.20
2023-02-27T17:35:32.625Z,12.80
2023-02-27T17:38:01.087Z,14.50
2023-02-27T17:40:29.566Z,18.50
2023-02-27T17:42:57.998Z,14.70
2023-02-27T17:45:27.360Z,14.70
2023-02-27T17:47:55.868Z,13.90
2023-02-27T17:50:24.254Z,14.60
2023-02-27T17:52:52.781Z,16.40
2023-02-27T17:55:21.356Z,14.20
2023-02-27T17:57:49.962Z,17.80
2023-02-27T18:00:18.979Z,19.50
2023-02-27T18:02:48.259Z,19.30
2023-02-27T18:05:17.234Z,18.90
2023-02-27T18:07:45.823Z,16.60
2023-02-27T18:10:14.496Z,17.70
2023-02-27T18:12:43.397Z,19.00
2023-02-27T18:15:11.831Z,19.30
2023-02-27T18:17:40.362Z,18.90
2023-02-27T18:20:10.219Z,15.30
2023-02-27T18:22:38.595Z,15.40
2023-02-27T18:25:07.533Z,15.70
2023-02-27T18:27:36.049Z,16.60
2023-02-27T18:30:05.320Z,17.10
2023-02-27T18:32:33.686Z,14.30
2023-02-27T18:35:02.213Z,16.00
2023-02-27T18:37:30.682Z,12.90
2023-02-27T18:39:59.042Z,14.80
2023-02-27T18:42:27.474Z,15.50
2023-02-27T18:44:55.772Z,15.50
2023-02-27T18:47:24.998Z,16.60
2023-02-27T18:49:53.383Z,14.80
2023-02-27T18:52:21.952Z,20.30
2023-02-27T18:54:50.529Z,20.40
2023-02-27T18:57:19.091Z,14.50
2023-02-27T18:59:47.737Z,18.10
2023-02-27T19:02:21.544Z,18.50
2023-02-27T19:04:50.180Z,17.40
2023-02-27T19:07:19.761Z,20.50
2023-02-27T19:09:48.315Z,25.40
2023-02-27T19:12:17.555Z,18.90
2023-02-27T19:14:45.925Z,17.00
2023-02-27T19:17:14.336Z,18.40
2023-02-27T19:19:42.828Z,20.30
2023-02-27T19:22:11.390Z,20.10
2023-02-27T19:24:39.832Z,15.00
2023-02-27T19:27:08.382Z,19.40
2023-02-27T19:29:36.703Z,18.50
2023-02-27T19:32:07.716Z,18.50
2023-02-27T19:34:36.285Z,18.90
2023-02-27T19:37:04.769Z,17.00
2023-02-27T19:39:33.446Z,19.40
2023-02-27T19:42:01.831Z,17.40
2023-02-27T19:44:30.198Z,16.20
2023-02-27T19:46:58.671Z,15.30
2023-02-27T19:49:27.491Z,17.70
2023-02-27T19:51:55.967Z,17.10
2023-02-27T19:54:24.940Z,17.30
2023-02-27T19:56:54.424Z,17.60
2023-02-27T19:59:24.763Z,14.90
2023-02-27T20:01:53.474Z,14.70
2023-02-27T20:04:21.991Z,17.30
2023-02-27T20:06:53.687Z,16.20
2023-02-27T20:09:23.375Z,15.00
2023-02-27T20:11:56.820Z,14.60
2023-02-27T20:14:25.333Z,16.00
2023-02-27T20:16:54.438Z,16.60
2023-02-27T20:19:24.281Z,17.30
2023-02-27T20:21:54.283Z,19.90
2023-02-27T20:24:24.572Z,18.70
2023-02-27T20:26:54.262Z,14.50
2023-02-27T20:29:25.200Z,17.40
2023-02-27T20:31:55.787Z,17.90
2023-02-27T20:34:26.518Z,17.50
2023-02-27T20:36:56.068Z,15.80
2023-02-27T20:39:25.147Z,17.20
2023-02-27T20:41:53.550Z,20.70
2023-02-27T20:44:22.064Z,16.70
2023-02-27T20:46:50.503Z,18.50
2023-02-27T20:49:18.969Z,18.20
2023-02-27T20:51:47.396Z,18.90
2023-02-27T20:54:20.815Z,17.60
2023-02-27T20:56:54.779Z,16.40
2023-02-27T20:59:25.392Z,17.20
2023-02-27T21:01:54.937Z,13.70
2023-02-27T21:04:42.282Z,17.50
2023-02-27T21:07:13.914Z,16.10
2023-02-27T21:09:42.375Z,15.80
2023-02-27T21:12:11.373Z,17.40
2023-02-27T21:14:40.111Z,18.40
2023-02-27T21:17:08.447Z,18.20
2023-02-27T21:19:39.939Z,16.60
2023-02-27T21:22:11.231Z,16.60
2023-02-27T21:24:39.926Z,17.10
2023-02-27T21:27:08.775Z,17.60
2023-02-27T21:29:37.223Z,15.90
2023-02-27T21:32:05.780Z,17.50
2023-02-27T21:34:34.106Z,18.20
2023-02-27T21:37:03.695Z,16.20
2023-02-27T21:39:32.269Z,17.60
2023-02-27T21:42:00.702Z,16.10
2023-02-27T21:44:29.826Z,15.40
2023-02-27T21:46:59.528Z,14.50
2023-02-27T21:49:31.303Z,16.50
2023-02-27T21:51:59.646Z,16.20
2023-02-27T21:54:28.013Z,16.30
2023-02-27T21:56:58.202Z,16.20
2023-02-27T21:59:26.563Z,16.70
2023-02-27T22:01:56.407Z,15.80
2023-02-27T22:04:25.225Z,15.70
2023-02-27T22:06:53.631Z,16.40
2023-02-27T22:09:22.052Z,16.80
2023-02-27T22:11:50.463Z,16.70
2023-02-27T22:14:18.781Z,14.20
2023-02-27T22:16:47.221Z,17.60
2023-02-27T22:19:22.171Z,16.30
2023-02-27T22:21:50.530Z,17.80
2023-02-27T22:24:18.873Z,16.20
2023-02-27T22:26:49.748Z,16.20
2023-02-27T22:29:18.130Z,15.10
2023-02-27T22:31:46.981Z,16.40
2023-02-27T22:34:18.722Z,18.40
2023-02-27T22:36:52.810Z,16.00
2023-02-27T22:39:21.561Z,14.90
2023-02-27T22:41:50.214Z,19.40
2023-02-27T22:44:18.701Z,18.60
2023-02-27T22:46:49.692Z,18.50
2023-02-27T22:49:23.616Z,19.10
2023-02-27T22:51:52.879Z,19.60
2023-02-27T22:54:22.760Z,19.10
2023-02-27T22:56:53.179Z,24.60
2023-02-27T22:59:21.722Z,22.50
2023-02-27T23:01:50.848Z,27.10
2023-02-27T23:04:21.486Z,27.40
2023-02-27T23:06:52.580Z,22.90
2023-02-27T23:09:24.359Z,26.70
2023-02-27T23:11:54.860Z,27.90
2023-02-27T23:14:23.358Z,25.40
2023-02-27T23:16:51.907Z,28.30
2023-02-27T23:19:22.742Z,31.30
2023-02-27T23:21:51.340Z,23.30
2023-02-27T23:24:20.054Z,18.60
2023-02-27T23:26:52.328Z,17.90
2023-02-27T23:29:21.321Z,15.90
2023-02-27T23:31:50.182Z,19.50
2023-02-27T23:34:18.902Z,14.60
2023-02-27T23:36:47.505Z,17.10
2023-02-27T23:39:15.977Z,17.10
2023-02-27T23:41:44.606Z,20.30
2023-02-27T23:44:13.342Z,15.50
2023-02-27T23:46:41.861Z,16.70
2023-02-27T23:49:11.422Z,15.00
2023-02-27T23:51:40.359Z,18.50
2023-02-27T23:54:09.098Z,15.20
2023-02-27T23:56:37.728Z,17.40
2023-02-27T23:59:07.281Z,16.90
